Time;durP1;ratioP1;P1;durP2;ratioP2;P2;SDS_P1;SDS_P2;PMS_P1;PMS_P2;Temp;Humidity;BMP_temperature;BMP_pressure;BME280_temperature;BME280_humidity;BME280_pressure;Samples;Min_cycle;Max_cycle;Signal;HPM_P1;HPM_P2
2022/03/17 00:01:20;;;;;;;27.23;18.23;;;9.80;99.90;;;;;;5027385;28;20093;-80
2022/03/17 00:03:52;;;;;;;25.73;16.30;;;10.10;99.90;;;;;;5017969;28;20018;-80
2022/03/17 00:06:20;;;;;;;27.67;16.97;;;10.20;99.90;;;;;;4994993;28;20034;-80
2022/03/17 00:08:48;;;;;;;26.02;16.90;;;11.00;99.90;;;;;;5027175;28;20287;-81
2022/03/17 00:11:35;;;;;;;28.23;17.60;;;10.00;99.90;;;;;;5012882;28;20033;-82
2022/03/17 00:14:04;;;;;;;28.17;16.92;;;10.20;99.90;;;;;;5037057;28;20034;-81
2022/03/17 00:21:44;;;;;;;26.55;16.35;;;10.10;99.90;;;;;;5063210;28;20052;-84
2022/03/17 00:24:11;;;;;;;26.00;17.42;;;10.00;99.90;;;;;;5061740;28;20039;-85
2022/03/17 00:26:37;;;;;;;32.88;17.63;;;10.00;99.90;;;;;;5038647;28;20083;-83
2022/03/17 00:29:07;;;;;;;26.30;16.80;;;10.10;99.90;;;;;;5039187;28;20032;-85
2022/03/17 00:31:34;;;;;;;28.33;17.73;;;10.00;99.90;;;;;;5047196;28;20005;-85
2022/03/17 00:33:59;;;;;;;26.30;17.13;;;10.10;99.90;;;;;;5044356;28;20063;-81
2022/03/17 00:36:25;;;;;;;27.65;17.88;;;10.20;99.90;;;;;;5053721;28;20033;-86
2022/03/17 00:38:51;;;;;;;27.55;17.77;;;10.10;99.90;;;;;;5034727;28;20028;-84
2022/03/17 00:41:16;;;;;;;27.52;16.80;;;10.00;99.90;;;;;;5038454;28;20025;-85
2022/03/17 00:43:42;;;;;;;26.20;17.42;;;10.00;99.90;;;;;;5037809;28;20296;-84
2022/03/17 00:46:08;;;;;;;26.73;17.20;;;10.00;99.90;;;;;;5037749;28;20044;-83
2022/03/17 00:48:33;;;;;;;24.33;16.67;;;10.00;99.90;;;;;;5038063;28;20262;-83
2022/03/17 00:50:59;;;;;;;29.25;18.75;;;10.00;99.90;;;;;;5039039;28;20025;-84
2022/03/17 00:53:25;;;;;;;28.65;18.33;;;10.00;99.90;;;;;;5052457;28;20021;-85
2022/03/17 00:55:50;;;;;;;28.08;17.88;;;10.10;99.90;;;;;;5035394;28;20030;-83
2022/03/17 00:58:16;;;;;;;28.65;18.60;;;10.10;99.90;;;;;;5037924;28;20125;-83
2022/03/17 01:00:42;;;;;;;27.63;18.55;;;10.00;99.90;;;;;;5029375;28;20120;-86
2022/03/17 01:03:08;;;;;;;31.48;18.77;;;10.00;99.90;;;;;;5045190;28;20032;-82
2022/03/17 01:05:34;;;;;;;26.00;18.23;;;10.00;99.90;;;;;;5029653;28;20076;-83
2022/03/17 01:08:00;;;;;;;30.40;18.73;;;10.00;99.90;;;;;;5029428;28;20539;-86
2022/03/17 01:10:25;;;;;;;29.52;18.30;;;10.00;99.90;;;;;;5034141;28;20033;-85
2022/03/17 01:12:51;;;;;;;30.67;17.83;;;10.00;99.90;;;;;;5047569;28;20052;-81
2022/03/17 01:15:18;;;;;;;30.38;19.45;;;10.00;99.90;;;;;;5050672;28;20029;-82
2022/03/17 01:17:44;;;;;;;29.88;18.05;;;10.00;99.90;;;;;;5032083;28;20029;-79
2022/03/17 01:20:11;;;;;;;29.75;18.42;;;10.00;99.90;;;;;;5033810;28;20523;-84
2022/03/17 01:22:37;;;;;;;28.50;18.33;;;9.90;99.90;;;;;;5049115;28;20493;-82
2022/03/17 01:25:05;;;;;;;29.05;18.20;;;9.90;99.90;;;;;;5033883;28;20028;-83
2022/03/17 01:27:31;;;;;;;28.75;18.80;;;9.90;99.90;;;;;;5033543;28;20049;-80
2022/03/17 01:29:56;;;;;;;29.98;18.73;;;9.90;99.90;;;;;;5030188;28;20524;-82
2022/03/17 01:32:25;;;;;;;27.67;18.88;;;10.10;99.90;;;;;;5030591;28;20177;-82
2022/03/17 01:34:51;;;;;;;34.20;19.70;;;9.90;99.90;;;;;;5052090;28;20160;-82
2022/03/17 01:37:20;;;;;;;31.90;19.52;;;9.90;99.90;;;;;;5036672;28;20037;-82
2022/03/17 01:39:45;;;;;;;30.60;18.90;;;9.90;99.90;;;;;;5036444;28;20155;-85
2022/03/17 01:42:11;;;;;;;32.50;18.90;;;9.80;99.90;;;;;;5039824;28;20057;-80
2022/03/17 01:44:38;;;;;;;28.65;18.25;;;9.90;99.90;;;;;;5036841;28;20033;-84
2022/03/17 01:49:49;;;;;;;28.73;18.48;;;9.90;99.90;;;;;;5047918;28;20038;-88
2022/03/17 01:52:15;;;;;;;33.38;19.20;;;9.90;99.90;;;;;;5029949;28;20031;-84
2022/03/17 01:54:42;;;;;;;26.67;18.73;;;9.90;99.90;;;;;;5047977;28;20034;-84
2022/03/17 01:57:09;;;;;;;26.70;17.73;;;9.90;99.90;;;;;;5034361;28;20037;-85
2022/03/17 01:59:36;;;;;;;31.48;19.60;;;10.00;99.90;;;;;;5049656;28;20025;-86
2022/03/17 02:02:05;;;;;;;29.35;18.85;;;9.90;99.90;;;;;;5031433;28;20029;-82
2022/03/17 02:04:31;;;;;;;30.08;19.27;;;9.90;99.90;;;;;;5028651;28;20037;-81
2022/03/17 02:06:56;;;;;;;27.48;18.73;;;9.80;99.90;;;;;;5048200;28;20025;-83
2022/03/17 02:09:26;;;;;;;29.05;19.25;;;10.30;99.90;;;;;;5033573;28;20045;-86
2022/03/17 02:14:53;;;;;;;27.27;18.05;;;9.80;99.90;;;;;;5048751;28;20039;-87
2022/03/17 02:17:20;;;;;;;28.95;18.48;;;9.80;99.90;;;;;;5054156;28;20033;-83
2022/03/17 02:19:46;;;;;;;29.42;18.67;;;10.10;99.90;;;;;;5034441;28;20481;-81
2022/03/17 02:22:14;;;;;;;28.55;18.98;;;9.80;99.90;;;;;;5033664;28;20037;-83
2022/03/17 02:27:47;;;;;;;42.85;19.25;;;9.80;99.90;;;;;;5048321;28;20047;-85
2022/03/17 02:30:28;;;;;;;28.05;18.55;;;9.60;99.90;;;;;;5035718;28;20025;-84
2022/03/17 02:32:59;;;;;;;28.50;18.30;;;9.80;99.90;;;;;;5024994;28;20047;-85
2022/03/17 02:35:25;;;;;;;26.60;18.25;;;10.00;99.90;;;;;;5053776;28;20024;-82
2022/03/17 02:37:51;;;;;;;28.95;18.08;;;9.80;99.90;;;;;;5028118;28;20167;-87
2022/03/17 02:40:17;;;;;;;27.38;18.65;;;9.80;99.90;;;;;;5031559;28;20026;-86
2022/03/17 02:42:43;;;;;;;27.85;18.67;;;9.80;99.90;;;;;;5035166;28;20027;-89
2022/03/17 02:45:12;;;;;;;26.35;16.33;;;9.80;99.90;;;;;;5055468;28;20025;-86
2022/03/17 02:47:40;;;;;;;25.77;17.17;;;9.70;99.90;;;;;;5038566;28;20473;-83
2022/03/17 02:50:10;;;;;;;27.48;17.70;;;9.70;99.90;;;;;;5036302;28;20025;-86
2022/03/17 02:52:36;;;;;;;28.90;17.88;;;9.70;99.90;;;;;;5025007;28;20021;-85
2022/03/17 02:55:02;;;;;;;24.58;17.08;;;9.70;99.90;;;;;;5032276;28;20021;-85
2022/03/17 02:57:28;;;;;;;27.77;17.60;;;9.60;99.90;;;;;;5037080;28;20124;-86
2022/03/17 02:59:54;;;;;;;30.70;19.02;;;9.60;99.90;;;;;;5033152;28;20049;-84
2022/03/17 03:02:21;;;;;;;33.70;19.40;;;9.60;99.90;;;;;;5038802;28;20032;-86
2022/03/17 03:04:47;;;;;;;30.15;18.55;;;9.60;99.90;;;;;;5028400;28;20112;-86
2022/03/17 03:07:13;;;;;;;28.83;18.17;;;9.60;99.90;;;;;;5032515;28;20036;-86
2022/03/17 03:09:39;;;;;;;28.15;18.58;;;9.60;99.90;;;;;;5031461;28;20033;-87
2022/03/17 03:12:05;;;;;;;30.95;18.92;;;9.50;99.90;;;;;;5060984;28;20037;-85
2022/03/17 03:14:31;;;;;;;28.13;18.50;;;9.50;99.90;;;;;;5032152;28;20242;-87
2022/03/17 03:16:57;;;;;;;32.15;18.98;;;9.50;99.90;;;;;;5035163;28;20075;-86
2022/03/17 03:19:23;;;;;;;29.90;19.30;;;9.50;99.90;;;;;;5036657;28;20028;-87
2022/03/17 03:21:49;;;;;;;31.13;20.27;;;9.50;99.90;;;;;;5037187;28;20423;-85
2022/03/17 03:24:15;;;;;;;30.23;19.00;;;9.60;99.90;;;;;;5050544;28;20592;-87
2022/03/17 03:26:42;;;;;;;29.77;18.67;;;9.50;99.90;;;;;;5051826;28;20083;-81
2022/03/17 03:31:52;;;;;;;30.63;18.67;;;9.50;99.90;;;;;;5051942;28;20029;-85
2022/03/17 03:34:18;;;;;;;29.20;19.05;;;9.50;99.90;;;;;;5028902;28;20036;-85
2022/03/17 03:39:29;;;;;;;31.42;19.05;;;9.60;99.90;;;;;;5056671;28;20040;-86
2022/03/17 03:41:54;;;;;;;31.75;19.60;;;9.50;99.90;;;;;;5036024;28;20026;-86
2022/03/17 03:44:20;;;;;;;31.77;18.85;;;9.50;99.90;;;;;;5032018;28;20032;-84
2022/03/17 03:46:46;;;;;;;29.92;19.17;;;9.60;99.90;;;;;;5032354;28;20480;-88
2022/03/17 03:49:11;;;;;;;30.52;18.70;;;9.50;99.90;;;;;;5032890;28;20389;-87
2022/03/17 03:51:37;;;;;;;28.48;18.70;;;9.50;99.90;;;;;;5033149;28;20079;-85
2022/03/17 03:54:17;;;;;;;30.00;19.27;;;9.50;99.90;;;;;;5035871;28;20117;-86
2022/03/17 03:56:52;;;;;;;29.02;19.00;;;9.50;99.90;;;;;;5034124;28;20021;-87
2022/03/17 03:59:20;;;;;;;29.33;18.77;;;9.60;99.90;;;;;;5051800;28;20025;-84
2022/03/17 04:01:48;;;;;;;29.55;18.77;;;10.10;99.90;;;;;;5043368;28;20022;-87
2022/03/17 04:04:18;;;;;;;28.15;18.42;;;10.50;99.90;;;;;;5055172;28;20112;-86
2022/03/17 04:06:45;;;;;;;28.27;18.57;;;9.60;99.90;;;;;;5033460;28;20097;-84
2022/03/17 04:09:12;;;;;;;27.83;17.65;;;9.60;99.90;;;;;;5031831;28;20272;-85
2022/03/17 04:11:40;;;;;;;30.20;18.50;;;9.60;99.90;;;;;;5037587;28;20029;-86
2022/03/17 04:14:06;;;;;;;28.58;17.98;;;9.60;99.90;;;;;;5040756;28;20088;-82
2022/03/17 04:16:32;;;;;;;28.77;18.25;;;9.60;99.90;;;;;;5035939;28;20497;-84
2022/03/17 04:18:58;;;;;;;26.27;18.38;;;9.60;99.90;;;;;;5038977;28;20091;-85
2022/03/17 04:21:23;;;;;;;28.85;18.33;;;9.70;99.90;;;;;;5038123;28;20037;-86
2022/03/17 04:23:50;;;;;;;28.58;19.23;;;9.60;99.90;;;;;;5037672;28;20503;-87
2022/03/17 04:26:16;;;;;;;33.47;20.05;;;9.80;99.90;;;;;;5032860;28;20109;-88
2022/03/17 04:28:41;;;;;;;33.28;21.13;;;9.60;99.90;;;;;;5041044;28;20576;-88
2022/03/17 04:31:07;;;;;;;35.42;21.40;;;9.60;99.90;;;;;;5034315;28;20407;-85
2022/03/17 04:33:34;;;;;;;34.30;21.83;;;9.60;99.90;;;;;;5037788;28;20578;-86
2022/03/17 04:36:02;;;;;;;31.00;20.40;;;9.60;99.90;;;;;;5033876;28;20455;-86
2022/03/17 04:38:28;;;;;;;33.50;20.83;;;9.50;99.90;;;;;;5034618;28;20021;-85
2022/03/17 04:40:54;;;;;;;35.33;21.10;;;9.60;99.90;;;;;;5033037;28;20040;-84
2022/03/17 04:43:20;;;;;;;31.85;20.70;;;9.50;99.90;;;;;;5033223;28;20040;-86
2022/03/17 04:45:46;;;;;;;33.38;20.73;;;9.60;99.90;;;;;;5037834;28;20474;-85
2022/03/17 04:48:14;;;;;;;34.65;21.05;;;9.50;99.90;;;;;;5033653;28;20021;-86
2022/03/17 04:50:40;;;;;;;32.83;20.50;;;9.50;99.90;;;;;;5033872;28;20144;-84
2022/03/17 04:55:51;;;;;;;32.05;21.67;;;9.50;99.90;;;;;;5053560;28;20079;-86
2022/03/17 04:58:17;;;;;;;35.95;21.80;;;9.50;99.90;;;;;;5053457;28;20029;-86
2022/03/17 05:00:43;;;;;;;33.85;20.30;;;9.50;99.90;;;;;;5038047;28;20052;-86
2022/03/17 05:03:09;;;;;;;37.13;22.38;;;9.50;99.90;;;;;;5035394;28;20041;-84
2022/03/17 05:05:35;;;;;;;35.38;21.98;;;9.50;99.90;;;;;;5035209;28;20057;-88
2022/03/17 05:08:01;;;;;;;33.53;21.90;;;9.60;99.90;;;;;;5054603;28;20032;-84
2022/03/17 05:10:29;;;;;;;33.83;21.92;;;9.60;99.90;;;;;;5038328;28;20036;-86
2022/03/17 05:12:56;;;;;;;36.72;22.13;;;9.70;99.90;;;;;;5039825;28;20029;-85
2022/03/17 05:15:22;;;;;;;35.72;22.60;;;9.60;99.90;;;;;;5032658;28;20032;-85
2022/03/17 05:17:48;;;;;;;37.75;23.63;;;9.60;99.90;;;;;;5047909;28;20044;-86
2022/03/17 05:20:14;;;;;;;37.13;23.60;;;10.60;99.90;;;;;;5038810;28;20025;-85
2022/03/17 05:22:41;;;;;;;32.60;22.13;;;9.60;99.90;;;;;;5034015;28;20476;-87
2022/03/17 05:25:08;;;;;;;36.10;21.92;;;9.60;99.90;;;;;;5038029;28;20060;-85
2022/03/17 05:27:43;;;;;;;33.58;20.90;;;9.50;99.90;;;;;;5035975;28;20120;-85
2022/03/17 05:30:14;;;;;;;31.35;20.15;;;9.60;99.90;;;;;;5033263;28;20031;-87
2022/03/17 05:32:43;;;;;;;;;;;9.50;99.90;;;;;;5038249;28;20477;-86
2022/03/17 05:35:10;;;;;;;31.38;19.90;;;9.50;99.90;;;;;;5031672;28;19927;-86
2022/03/17 05:37:39;;;;;;;32.22;20.08;;;9.60;99.90;;;;;;5030545;28;20060;-86
2022/03/17 05:40:13;;;;;;;32.67;21.27;;;9.50;99.90;;;;;;5036797;28;20025;-87
2022/03/17 05:42:40;;;;;;;34.83;21.75;;;9.50;99.90;;;;;;5031010;28;20025;-87
2022/03/17 05:45:12;;;;;;;32.78;20.73;;;9.50;99.90;;;;;;5036194;28;20385;-86
2022/03/17 05:47:41;;;;;;;34.15;21.10;;;9.40;99.90;;;;;;5049237;28;20025;-87
2022/03/17 05:50:13;;;;;;;34.30;20.75;;;9.40;99.90;;;;;;5033810;28;20033;-84
2022/03/17 05:52:39;;;;;;;33.65;20.92;;;9.40;99.90;;;;;;5034927;28;20025;-83
2022/03/17 05:55:06;;;;;;;32.00;20.63;;;9.40;99.90;;;;;;5030775;28;20025;-86
2022/03/17 05:57:43;;;;;;;35.67;21.10;;;9.30;99.90;;;;;;5047762;28;20082;-85
2022/03/17 06:00:16;;;;;;;34.13;21.25;;;10.40;99.90;;;;;;5048579;28;20021;-87
2022/03/17 06:02:42;;;;;;;30.02;20.17;;;9.30;99.90;;;;;;5038298;28;20033;-89
2022/03/17 06:05:09;;;;;;;34.30;21.42;;;9.40;99.90;;;;;;5028382;28;20036;-87
2022/03/17 06:07:39;;;;;;;31.08;20.35;;;9.40;99.90;;;;;;5040353;28;20028;-86
2022/03/17 06:10:07;;;;;;;33.92;20.95;;;9.40;99.90;;;;;;5036803;28;20021;-89
2022/03/17 06:12:33;;;;;;;36.15;21.25;;;9.40;99.90;;;;;;5043176;28;20116;-88
2022/03/17 06:15:00;;;;;;;41.33;22.15;;;9.40;99.90;;;;;;5052995;28;20025;-86
2022/03/17 06:17:44;;;;;;;35.88;22.33;;;9.40;99.90;;;;;;5050644;28;20120;-89
2022/03/17 06:20:15;;;;;;;33.42;20.42;;;9.50;99.90;;;;;;5035835;28;20056;-87
2022/03/17 06:22:43;;;;;;;35.80;21.52;;;9.50;99.90;;;;;;5042213;28;20021;-85
2022/03/17 06:25:22;;;;;;;38.83;21.35;;;9.50;99.90;;;;;;5057155;28;20060;-90
2022/03/17 06:27:49;;;;;;;33.58;21.17;;;9.50;99.90;;;;;;5043585;28;20035;-86
2022/03/17 06:30:20;;;;;;;32.25;19.85;;;9.50;99.90;;;;;;5040223;28;20028;-85
2022/03/17 06:32:46;;;;;;;30.55;19.13;;;9.60;99.90;;;;;;5036973;28;20028;-87
2022/03/17 06:35:17;;;;;;;33.08;20.70;;;9.60;99.90;;;;;;5041707;28;20021;-87
2022/03/17 06:37:49;;;;;;;34.50;20.40;;;9.60;99.90;;;;;;5024888;28;20096;-84
2022/03/17 06:40:16;;;;;;;32.28;19.17;;;9.60;99.90;;;;;;5035523;28;20021;-84
2022/03/17 06:42:43;;;;;;;30.60;18.70;;;9.60;99.90;;;;;;5030446;28;20057;-86
2022/03/17 06:45:10;;;;;;;33.08;20.05;;;9.60;99.90;;;;;;5032241;28;20056;-86
2022/03/17 06:47:36;;;;;;;35.30;19.15;;;9.70;99.90;;;;;;5028616;28;20033;-82
2022/03/17 06:50:02;;;;;;;33.17;20.50;;;9.70;99.90;;;;;;5033090;28;20025;-84
2022/03/17 06:52:27;;;;;;;35.00;19.50;;;9.70;99.90;;;;;;5033028;28;20128;-87
2022/03/17 06:54:53;;;;;;;31.58;19.25;;;9.70;99.90;;;;;;5027437;28;20151;-85
2022/03/17 06:57:20;;;;;;;33.33;19.95;;;9.80;99.90;;;;;;5035775;28;20029;-87
2022/03/17 06:59:47;;;;;;;30.67;19.85;;;9.90;99.90;;;;;;5037071;28;20021;-86
2022/03/17 07:02:13;;;;;;;33.80;19.52;;;9.70;99.90;;;;;;5039978;28;20441;-86
2022/03/17 07:04:39;;;;;;;36.58;20.80;;;9.70;99.90;;;;;;5032137;28;20052;-85
2022/03/17 07:07:05;;;;;;;30.50;19.92;;;9.80;99.90;;;;;;5034634;28;20035;-84
2022/03/17 07:09:31;;;;;;;29.75;18.52;;;9.90;99.90;;;;;;5018066;28;20498;-84
2022/03/17 07:11:56;;;;;;;32.35;19.60;;;9.90;99.90;;;;;;5027437;28;20172;-85
2022/03/17 07:14:22;;;;;;;34.30;18.48;;;9.90;99.90;;;;;;5046606;28;20393;-86
2022/03/17 07:16:48;;;;;;;34.85;19.80;;;9.90;99.90;;;;;;5041737;28;20025;-85
2022/03/17 07:19:13;;;;;;;33.63;20.67;;;9.90;99.90;;;;;;5033317;28;20021;-86
2022/03/17 07:21:39;;;;;;;32.08;18.65;;;9.90;99.90;;;;;;5039327;28;20032;-87
2022/03/17 07:24:09;;;;;;;31.60;19.73;;;10.00;99.90;;;;;;5036208;28;20024;-86
2022/03/17 07:26:35;;;;;;;31.15;19.38;;;10.00;99.90;;;;;;5030127;28;20106;-84
2022/03/17 07:29:02;;;;;;;30.13;19.15;;;10.00;99.90;;;;;;5031472;28;20029;-86
2022/03/17 07:31:28;;;;;;;36.00;21.42;;;10.10;99.90;;;;;;5037179;28;20064;-83
2022/03/17 07:33:54;;;;;;;33.30;19.38;;;10.10;99.90;;;;;;5028161;28;20433;-86
2022/03/17 07:36:21;;;;;;;36.80;20.50;;;10.10;99.90;;;;;;5037586;28;20029;-86
2022/03/17 07:38:46;;;;;;;38.85;20.05;;;9.40;99.90;;;;;;5038277;28;20022;-84
2022/03/17 07:41:13;;;;;;;32.40;19.73;;;10.30;99.90;;;;;;5056550;28;20087;-85
2022/03/17 07:43:41;;;;;;;32.05;19.67;;;10.30;99.90;;;;;;5042188;28;20033;-86
2022/03/17 07:46:10;;;;;;;35.22;20.38;;;10.30;99.90;;;;;;5037478;28;20603;-88
2022/03/17 07:48:36;;;;;;;35.78;19.85;;;10.40;99.90;;;;;;5038962;28;20102;-86
2022/03/17 07:51:02;;;;;;;35.13;20.67;;;10.40;99.90;;;;;;5040053;28;20092;-86
2022/03/17 07:53:28;;;;;;;34.67;21.13;;;10.40;99.90;;;;;;5061465;28;20029;-86
2022/03/17 07:55:55;;;;;;;32.45;21.25;;;10.40;99.90;;;;;;5039294;28;20398;-87
2022/03/17 07:58:27;;;;;;;32.65;20.52;;;10.40;99.90;;;;;;5058095;28;20029;-88
2022/03/17 08:00:55;;;;;;;33.92;21.15;;;10.40;99.90;;;;;;5032298;28;20041;-86
2022/03/17 08:03:22;;;;;;;36.85;21.15;;;10.50;99.90;;;;;;5037997;28;20025;-85
2022/03/17 08:05:48;;;;;;;33.53;20.58;;;10.50;99.90;;;;;;5037242;28;20029;-83
2022/03/17 08:08:15;;;;;;;35.92;20.60;;;10.50;99.90;;;;;;5052914;28;20024;-85
2022/03/17 08:10:41;;;;;;;33.55;20.63;;;10.70;99.90;;;;;;5054275;28;20041;-86
2022/03/17 08:13:09;;;;;;;39.63;21.90;;;10.50;99.90;;;;;;5027612;28;20124;-85
2022/03/17 08:15:37;;;;;;;36.55;20.85;;;10.60;99.90;;;;;;5036191;28;20108;-89
2022/03/17 08:18:04;;;;;;;37.45;22.08;;;11.50;99.90;;;;;;5037383;28;20025;-84
2022/03/17 08:20:31;;;;;;;37.35;21.48;;;10.70;99.90;;;;;;5036475;28;20029;-85
2022/03/17 08:22:57;;;;;;;34.38;20.95;;;10.80;99.90;;;;;;5032415;28;20088;-86
2022/03/17 08:25:23;;;;;;;36.83;20.77;;;11.90;99.90;;;;;;5031621;28;20048;-85
2022/03/17 08:27:51;;;;;;;38.05;23.10;;;10.80;99.90;;;;;;5041347;28;20028;-86
2022/03/17 08:30:17;;;;;;;37.30;21.92;;;10.80;99.90;;;;;;5040854;28;20093;-86
2022/03/17 08:32:43;;;;;;;36.95;22.58;;;10.70;99.90;;;;;;5039632;28;20044;-88
2022/03/17 08:35:10;;;;;;;36.33;21.35;;;10.80;99.90;;;;;;5041367;28;20025;-87
2022/03/17 08:37:42;;;;;;;35.55;22.42;;;10.80;99.90;;;;;;5058013;28;20029;-85
2022/03/17 08:40:10;;;;;;;38.65;21.70;;;10.80;99.90;;;;;;5040252;28;20118;-85
2022/03/17 08:42:36;;;;;;;40.22;22.67;;;10.80;99.90;;;;;;5044721;28;20045;-85
2022/03/17 08:49:18;;;;;;;36.42;22.10;;;10.80;99.90;;;;;;5031768;28;20052;-84
2022/03/17 08:50:34;;;;;;;31.95;20.08;;;11.00;99.90;;;;;;5054380;28;20044;-87
2022/03/17 08:52:59;;;;;;;33.55;20.45;;;11.10;99.90;;;;;;5031059;28;20025;-88
2022/03/17 08:55:25;;;;;;;36.10;21.88;;;11.20;99.90;;;;;;5040163;28;20025;-85
2022/03/17 08:57:51;;;;;;;36.08;20.67;;;11.30;99.90;;;;;;5054052;28;20089;-88
2022/03/17 09:00:17;;;;;;;34.78;21.58;;;11.20;99.90;;;;;;5054576;28;20022;-85
2022/03/17 09:02:44;;;;;;;44.53;21.63;;;;;;;;;;5037517;28;20025;-86
2022/03/17 09:05:10;;;;;;;35.53;20.77;;;11.00;99.90;;;;;;5043962;28;20025;-85
2022/03/17 09:07:36;;;;;;;38.03;22.02;;;11.10;99.90;;;;;;5039899;28;20024;-83
2022/03/17 09:10:05;;;;;;;37.55;21.45;;;11.00;99.90;;;;;;5039129;28;20441;-85
2022/03/17 09:12:33;;;;;;;40.25;23.80;;;10.90;99.90;;;;;;5039918;28;20033;-87
2022/03/17 09:14:59;;;;;;;38.90;22.20;;;10.90;99.90;;;;;;5037121;28;20098;-82
2022/03/17 09:17:25;;;;;;;39.50;22.67;;;10.90;99.90;;;;;;5044648;28;20029;-87
2022/03/17 09:19:51;;;;;;;39.08;22.67;;;10.90;99.90;;;;;;5039926;28;20029;-89
2022/03/17 09:22:19;;;;;;;38.08;23.80;;;10.90;99.90;;;;;;5053669;28;20017;-84
2022/03/17 09:24:48;;;;;;;46.28;27.70;;;11.10;99.90;;;;;;5041324;28;20025;-85
2022/03/17 09:27:17;;;;;;;42.20;24.10;;;10.90;99.90;;;;;;5040807;28;20089;-85
2022/03/17 09:29:43;;;;;;;41.13;24.45;;;11.00;99.90;;;;;;5031022;28;20030;-86
2022/03/17 09:32:09;;;;;;;38.90;23.75;;;11.10;99.90;;;;;;5057836;28;20021;-85
2022/03/17 09:34:36;;;;;;;37.78;23.98;;;11.40;99.90;;;;;;5043898;28;20056;-86
2022/03/17 09:37:05;;;;;;;43.45;23.42;;;11.10;99.90;;;;;;5043996;28;20149;-88
2022/03/17 09:39:43;;;;;;;37.35;22.35;;;9.10;99.90;;;;;;5056520;28;20029;-86
2022/03/17 09:42:14;;;;;;;41.67;24.52;;;11.20;99.90;;;;;;5044330;28;20025;-87
2022/03/17 09:44:40;;;;;;;;;;;11.10;99.90;;;;;;5045682;28;20044;-86
2022/03/17 09:47:10;;;;;;;45.58;22.67;;;9.60;99.90;;;;;;5044381;28;19913;-88
2022/03/17 09:49:37;;;;;;;40.13;22.97;;;11.00;99.90;;;;;;5037923;28;20441;-86
2022/03/17 09:52:12;;;;;;;42.25;24.30;;;11.10;99.90;;;;;;5038122;28;20286;-87
2022/03/17 09:54:39;;;;;;;38.45;23.23;;;11.10;99.90;;;;;;5049099;28;20722;-89
2022/03/17 09:57:05;;;;;;;39.67;22.95;;;11.40;99.90;;;;;;5040432;28;20009;-84
2022/03/17 09:59:31;;;;;;;40.28;22.88;;;11.10;99.90;;;;;;5039766;28;20061;-85
2022/03/17 10:02:00;;;;;;;43.10;23.25;;;11.10;99.90;;;;;;5032493;28;20555;-85
2022/03/17 10:04:36;;;;;;;37.78;22.77;;;11.10;99.90;;;;;;5026221;28;20026;-89
2022/03/17 10:07:02;;;;;;;36.83;23.00;;;11.00;99.90;;;;;;5040391;28;20036;-89
2022/03/17 10:09:29;;;;;;;38.25;22.75;;;11.00;99.90;;;;;;5043072;28;20496;-88
2022/03/17 10:12:06;;;;;;;37.95;20.80;;;10.90;99.90;;;;;;5061608;28;20506;-85
2022/03/17 10:14:37;;;;;;;40.90;22.13;;;11.10;99.90;;;;;;5043915;28;20485;-89
2022/03/17 10:17:10;;;;;;;42.85;22.48;;;11.10;99.90;;;;;;5061260;28;20033;-88
2022/03/17 10:19:36;;;;;;;39.03;22.85;;;11.10;99.90;;;;;;5043789;28;20104;-87
2022/03/17 10:22:14;;;;;;;34.70;20.92;;;11.10;99.90;;;;;;5062811;28;20036;-86
2022/03/17 10:24:52;;;;;;;36.88;20.90;;;11.30;99.90;;;;;;5044157;28;20074;-87
2022/03/17 10:27:45;;;;;;;37.67;20.92;;;11.20;99.90;;;;;;5044493;28;20036;-86
2022/03/17 10:30:14;;;;;;;34.63;19.83;;;11.20;99.90;;;;;;5043090;28;20037;-86
2022/03/17 10:32:53;;;;;;;34.17;19.15;;;11.30;99.90;;;;;;5041602;28;20033;-84
2022/03/17 10:35:28;;;;;;;35.58;19.00;;;11.30;99.90;;;;;;5042897;28;20055;-85
2022/03/17 10:37:54;;;;;;;34.13;17.80;;;11.40;99.90;;;;;;5041432;28;20032;-86
2022/03/17 10:40:29;;;;;;;30.77;17.33;;;11.50;99.90;;;;;;5025308;28;20025;-85
2022/03/17 10:43:14;;;;;;;30.98;18.55;;;11.40;99.90;;;;;;5057531;28;20025;-88
2022/03/17 10:45:40;;;;;;;27.60;16.38;;;11.50;99.90;;;;;;5058910;28;20375;-87
2022/03/17 10:48:06;;;;;;;31.83;18.25;;;11.50;99.90;;;;;;5061796;28;20047;-87
2022/03/17 10:50:42;;;;;;;36.72;18.08;;;11.60;99.90;;;;;;5058120;28;20021;-84
2022/03/17 10:53:10;;;;;;;32.00;17.02;;;11.50;99.90;;;;;;5060598;28;20041;-84
2022/03/17 10:55:37;;;;;;;32.60;16.23;;;11.50;99.90;;;;;;5058683;28;20497;-86
2022/03/17 10:58:17;;;;;;;27.75;16.15;;;11.80;99.90;;;;;;5055797;28;20048;-85
2022/03/17 11:00:50;;;;;;;28.63;14.90;;;11.50;99.90;;;;;;5039120;28;20022;-86
2022/03/17 11:03:17;;;;;;;26.83;15.68;;;11.40;99.90;;;;;;5045093;28;20474;-86
2022/03/17 11:05:43;;;;;;;28.77;14.98;;;11.50;99.90;;;;;;5037168;28;20021;-87
2022/03/17 11:08:10;;;;;;;27.20;15.85;;;11.50;99.90;;;;;;5056434;28;20031;-80
2022/03/17 11:10:40;;;;;;;27.40;14.70;;;11.60;99.90;;;;;;5046262;28;20245;-84
2022/03/17 11:13:13;;;;;;;24.85;15.55;;;11.50;99.90;;;;;;5046507;28;20474;-85
2022/03/17 11:16:02;;;;;;;29.58;15.80;;;11.60;99.90;;;;;;5047505;28;20033;-85
2022/03/17 11:18:35;;;;;;;25.60;14.68;;;11.60;99.90;;;;;;5039528;28;20044;-87
2022/03/17 11:21:27;;;;;;;23.40;14.23;;;11.60;99.90;;;;;;5047390;28;20492;-83
2022/03/17 11:24:04;;;;;;;26.98;14.98;;;11.60;99.90;;;;;;5046422;28;20018;-83
2022/03/17 11:26:37;;;;;;;23.10;14.80;;;11.70;99.90;;;;;;5047391;28;20299;-85
2022/03/17 11:29:10;;;;;;;25.05;13.43;;;12.00;99.90;;;;;;5066875;28;20036;-85
2022/03/17 11:31:56;;;;;;;20.02;13.05;;;11.70;99.90;;;;;;5047797;28;20036;-84
2022/03/17 11:34:46;;;;;;;22.58;12.82;;;11.70;99.90;;;;;;5047061;28;20025;-82
2022/03/17 11:37:21;;;;;;;23.75;12.35;;;11.70;99.90;;;;;;5048066;28;20025;-86
2022/03/17 11:39:54;;;;;;;18.77;11.77;;;11.70;99.90;;;;;;5046458;28;20056;-86
2022/03/17 11:42:29;;;;;;;19.90;12.05;;;11.70;99.90;;;;;;5044963;28;20554;-84
2022/03/17 11:45:13;;;;;;;17.98;11.10;;;11.90;99.90;;;;;;5064469;28;20036;-83
2022/03/17 11:47:44;;;;;;;16.15;10.45;;;11.90;99.90;;;;;;5046403;28;20393;-81
2022/03/17 11:50:33;;;;;;;19.63;11.02;;;11.70;99.90;;;;;;5044792;28;20025;-85
2022/03/17 11:53:03;;;;;;;18.52;10.30;;;11.70;99.90;;;;;;5045434;28;20115;-80
2022/03/17 11:55:41;;;;;;;19.23;10.65;;;11.60;99.90;;;;;;5045518;28;20059;-83
2022/03/17 11:58:16;;;;;;;19.38;10.80;;;11.60;99.90;;;;;;5044572;28;20032;-85
2022/03/17 12:01:00;;;;;;;17.42;11.55;;;11.60;99.90;;;;;;5044816;28;20083;-82
2022/03/17 12:03:37;;;;;;;19.08;11.10;;;11.60;99.90;;;;;;5045720;28;20028;-84
2022/03/17 12:06:29;;;;;;;20.25;11.05;;;11.60;99.90;;;;;;5045802;28;20033;-85
2022/03/17 12:08:59;;;;;;;16.88;10.60;;;11.60;99.90;;;;;;5042360;28;20029;-85
2022/03/17 12:11:32;;;;;;;19.20;11.38;;;11.60;99.90;;;;;;5043312;28;20043;-83
2022/03/17 12:14:18;;;;;;;16.08;10.93;;;11.60;99.90;;;;;;5043728;28;20416;-85
2022/03/17 12:17:06;;;;;;;19.63;11.32;;;11.60;99.90;;;;;;5044897;28;20039;-84
2022/03/17 12:19:36;;;;;;;18.48;11.30;;;11.60;99.90;;;;;;5049555;22;20040;-85
2022/03/17 12:22:10;;;;;;;18.58;10.93;;;11.60;99.90;;;;;;5028019;28;20441;-85
2022/03/17 12:24:59;;;;;;;23.25;11.70;;;11.50;99.90;;;;;;5013557;28;20025;-89
2022/03/17 12:27:34;;;;;;;21.08;11.90;;;11.50;99.90;;;;;;5001658;28;20026;-84
2022/03/17 12:30:18;;;;;;;19.98;11.93;;;11.50;99.90;;;;;;4995180;28;20105;-86
2022/03/17 12:32:55;;;;;;;19.25;12.23;;;11.40;99.90;;;;;;4999213;28;20160;-88
2022/03/17 12:35:34;;;;;;;19.17;11.95;;;11.50;99.90;;;;;;4995676;28;20478;-83
2022/03/17 12:38:02;;;;;;;20.48;12.93;;;11.50;99.90;;;;;;4997607;28;20040;-85
2022/03/17 12:43:47;;;;;;;19.60;12.13;;;11.50;99.90;;;;;;5035724;28;20053;-87
2022/03/17 19:01:27;;;;;;;11.07;6.35;;;9.60;99.90;;;;;;5025670;28;20128;-82
2022/03/17 19:03:55;;;;;;;24.38;10.18;;;9.60;99.90;;;;;;5018034;28;20138;-82
2022/03/17 19:06:34;;;;;;;14.65;7.53;;;9.50;99.90;;;;;;5015272;28;20025;-82
2022/03/17 19:09:01;;;;;;;9.82;5.63;;;9.50;99.90;;;;;;5031650;28;20033;-85
2022/03/17 19:11:55;;;;;;;13.45;6.45;;;9.50;99.90;;;;;;5012931;28;20025;-85
2022/03/17 19:14:22;;;;;;;11.57;6.57;;;9.50;99.90;;;;;;5006278;28;20923;-84
2022/03/17 19:17:01;;;;;;;11.45;6.45;;;9.60;99.90;;;;;;5032877;28;20028;-88
2022/03/17 19:19:29;;;;;;;12.77;6.80;;;9.60;99.90;;;;;;5002599;28;20072;-83
2022/03/17 19:21:55;;;;;;;10.35;5.70;;;9.50;99.90;;;;;;4997541;28;20025;-81
2022/03/17 19:24:21;;;;;;;8.43;5.38;;;9.50;99.90;;;;;;5013587;28;20026;-81
2022/03/17 19:26:46;;;;;;;14.07;6.32;;;9.60;99.90;;;;;;5029743;28;20406;-86